Time;durP1;ratioP1;P1;durP2;ratioP2;P2;SDS_P1;SDS_P2;PMS_P1;PMS_P2;Temp;Humidity;BMP_temperature;BMP_pressure;BME280_temperature;BME280_humidity;BME280_pressure;Samples;Min_cycle;Max_cycle;Signal;HPM_P1;HPM_P2
2022/07/19 00:00:20;;;;;;;;;9.00;8.00;;;;;30.40;28.69;101223.16;5064805;27;45524;-79
2022/07/19 00:02:46;;;;;;;;;6.67;5.67;;;;;30.38;28.28;101220.59;5078701;27;45538;-79
2022/07/19 00:05:13;;;;;;;;;8.33;8.33;;;;;30.37;28.08;101210.63;5097242;27;45588;-79
2022/07/19 00:07:39;;;;;;;;;7.33;6.00;;;;;30.30;28.67;101212.41;5096803;27;46408;-80
2022/07/19 00:10:07;;;;;;;;;9.33;9.33;;;;;30.33;28.76;101217.53;5096500;27;45484;-79
2022/07/19 00:12:33;;;;;;;;;7.00;7.00;;;;;30.22;28.91;101195.94;5097226;27;45451;-79
2022/07/19 00:14:58;;;;;;;;;7.67;6.67;;;;;30.32;28.73;101214.97;5096708;27;45497;-79
2022/07/19 00:17:23;;;;;;;;;8.33;8.33;;;;;30.29;28.63;101208.78;5097165;27;46721;-79
2022/07/19 00:19:49;;;;;;;;;9.00;7.33;;;;;30.28;29.02;101204.34;5097427;27;45540;-79
2022/07/19 00:22:14;;;;;;;;;9.67;9.00;;;;;30.26;27.94;101200.91;5083068;27;45590;-79
2022/07/19 00:24:40;;;;;;;;;8.00;8.00;;;;;30.25;28.21;101204.69;5096660;27;45444;-79
2022/07/19 00:27:05;;;;;;;;;8.00;8.00;;;;;30.25;28.23;101201.06;5096555;27;46083;-79
2022/07/19 00:29:31;;;;;;;;;10.67;9.67;;;;;30.14;28.68;101187.78;5073003;27;45565;-79
2022/07/19 00:31:56;;;;;;;;;6.33;6.33;;;;;30.20;28.69;101196.13;5092876;27;45481;-79
2022/07/19 00:34:21;;;;;;;;;11.33;8.33;;;;;30.17;28.76;101196.50;5089769;27;45560;-79
2022/07/19 00:36:47;;;;;;;;;15.00;14.33;;;;;30.03;28.58;101175.31;5080676;27;46144;-79
2022/07/19 00:39:12;;;;;;;;;13.00;11.00;;;;;30.14;28.46;101193.28;5085477;27;45513;-79
2022/07/19 00:41:42;;;;;;;;;14.33;12.33;;;;;30.13;28.67;101194.31;5076057;27;45513;-79
2022/07/19 00:44:09;;;;;;;;;10.33;10.33;;;;;30.14;28.68;101198.78;5077656;27;45421;-79
2022/07/19 00:46:34;;;;;;;;;10.67;9.33;;;;;30.07;28.50;101194.00;5093850;27;46533;-79
2022/07/19 00:49:00;;;;;;;;;14.00;11.00;;;;;30.07;28.78;101195.91;5075833;27;45470;-79
2022/07/19 00:51:26;;;;;;;;;13.00;12.33;;;;;29.98;28.87;101189.59;5075974;27;45512;-79
2022/07/19 00:53:54;;;;;;;;;11.67;10.33;;;;;30.01;28.87;101197.47;5080974;27;45458;-79
2022/07/19 00:56:20;;;;;;;;;10.67;9.00;;;;;29.98;28.88;101194.25;5084563;27;46894;-79
2022/07/19 00:58:48;;;;;;;;;8.00;8.00;;;;;29.96;28.98;101199.09;5075540;27;45490;-79
2022/07/19 01:01:13;;;;;;;;;11.33;8.00;;;;;29.93;28.93;101188.47;5076120;27;45545;-79
2022/07/19 01:03:40;;;;;;;;;8.00;8.00;;;;;29.91;29.08;101190.53;5089261;27;45433;-79
2022/07/19 01:06:07;;;;;;;;;8.33;8.33;;;;;29.90;29.39;101197.06;5082796;27;45459;-79
2022/07/19 01:08:32;;;;;;;;;10.00;9.00;;;;;29.74;29.06;101171.41;5095919;27;45558;-75
2022/07/19 01:10:58;;;;;;;;;9.67;9.33;;;;;29.79;28.97;101176.38;5076087;27;45489;-75
2022/07/19 01:13:23;;;;;;;;;11.33;9.33;;;;;29.82;29.32;101185.09;5075869;28;45430;-75
2022/07/19 01:15:49;;;;;;;;;12.67;11.33;;;;;29.71;29.30;101158.03;5075527;27;46056;-75
2022/07/19 01:18:15;;;;;;;;;10.00;9.00;;;;;29.75;29.18;101173.13;5066837;27;45376;-75
2022/07/19 01:20:40;;;;;;;;;12.00;11.00;;;;;29.75;29.27;101173.13;5080350;27;45514;-75
2022/07/19 01:23:06;;;;;;;;;8.67;8.00;;;;;29.73;28.89;101174.34;5083148;27;45480;-75
2022/07/19 01:25:34;;;;;;;;;7.67;7.67;;;;;29.65;29.17;101172.47;5082155;27;45347;-75
2022/07/19 01:28:06;;;;;;;;;6.00;6.00;;;;;29.69;29.08;101179.34;5075226;27;45543;-75
2022/07/19 01:30:31;;;;;;;;;5.67;5.67;;;;;29.66;28.96;101179.66;5088429;27;45459;-75
2022/07/19 01:32:57;;;;;;;;;9.00;7.67;;;;;29.64;29.74;101173.50;5077233;27;45739;-75
2022/07/19 01:35:23;;;;;;;;;11.00;9.67;;;;;29.55;29.54;101169.09;5056911;28;47310;-76
2022/07/19 01:37:49;;;;;;;;;10.33;7.00;;;;;29.51;29.60;101168.63;5088071;27;45591;-75
2022/07/19 01:40:16;;;;;;;;;9.00;8.00;;;;;29.49;29.45;101156.94;5075406;27;45429;-75
2022/07/19 01:42:43;;;;;;;;;9.00;8.67;;;;;29.50;29.93;101166.91;5075526;27;45572;-75
2022/07/19 01:45:09;;;;;;;;;11.00;8.00;;;;;29.47;29.56;101172.75;5079252;27;45431;-75
2022/07/19 01:47:35;;;;;;;;;8.67;8.33;;;;;29.40;29.68;101164.38;5075118;27;45538;-75
2022/07/19 01:50:02;;;;;;;;;7.33;6.33;;;;;29.41;29.37;101163.34;5089387;27;45402;-75
2022/07/19 01:52:27;;;;;;;;;7.33;6.67;;;;;29.40;28.98;101166.25;5075223;27;45434;-75
2022/07/19 01:54:52;;;;;;;;;8.33;7.00;;;;;29.38;29.61;101163.69;5056675;27;45510;-75
2022/07/19 01:57:18;;;;;;;;;8.33;7.67;;;;;29.37;29.28;101164.75;5075122;27;45395;-75
2022/07/19 01:59:43;;;;;;;;;5.33;4.67;;;;;29.37;29.43;101164.75;5075285;28;45472;-76
2022/07/19 02:02:09;;;;;;;;;5.33;5.33;;;;;29.35;29.04;101158.56;5075081;27;45562;-75
2022/07/19 02:04:34;;;;;;;;;9.00;9.00;;;;;29.38;28.65;101174.69;5074986;27;46911;-75
2022/07/19 02:07:00;;;;;;;;;9.67;6.67;;;;;29.27;28.54;101141.28;5080426;27;45467;-76
2022/07/19 02:09:25;;;;;;;;;5.67;5.67;;;;;29.36;28.77;101163.03;5074972;27;45427;-75
2022/07/19 02:11:52;;;;;;;;;8.00;8.00;;;;;29.37;28.55;101167.50;5057218;27;45773;-75
2022/07/19 02:14:18;;;;;;;;;5.00;4.67;;;;;29.38;28.48;101166.44;5074542;27;51306;-75
2022/07/19 02:16:44;;;;;;;;;5.67;5.67;;;;;29.37;28.60;101162.00;5088719;27;45435;-75
2022/07/19 02:19:10;;;;;;;;;6.67;4.00;;;;;29.34;28.71;101153.28;5056902;28;45684;-76
2022/07/19 02:21:36;;;;;;;;;4.33;4.33;;;;;29.38;28.45;101160.09;5076508;27;45407;-75
2022/07/19 02:24:04;;;;;;;;;6.33;5.00;;;;;29.31;28.69;101148.13;5078058;27;45492;-75
2022/07/19 02:26:30;;;;;;;;;5.67;5.67;;;;;29.25;28.29;101139.56;5078157;27;45585;-76
2022/07/19 02:28:55;;;;;;;;;5.00;5.00;;;;;29.35;28.79;101147.59;5076254;27;46916;-76
2022/07/19 02:31:20;;;;;;;;;6.00;6.00;;;;;29.34;28.89;101147.78;5099000;27;45516;-75
2022/07/19 02:33:46;;;;;;;;;5.33;5.33;;;;;29.31;28.79;101146.22;5084255;27;47085;-76
2022/07/19 02:36:12;;;;;;;;;4.67;2.00;;;;;29.32;28.67;101144.34;5078927;27;45412;-76
2022/07/19 02:38:38;;;;;;;;;4.00;4.00;;;;;29.30;28.92;101140.94;5090492;27;45470;-76
2022/07/19 02:41:04;;;;;;;;;4.00;4.00;;;;;29.27;28.98;101141.28;5077975;27;45541;-75
2022/07/19 02:43:29;;;;;;;;;7.33;7.33;;;;;29.25;29.18;101130.50;5077965;27;45498;-76
2022/07/19 02:45:54;;;;;;;;;7.00;6.00;;;;;29.23;28.87;101138.91;5082110;27;45597;-75
2022/07/19 02:48:20;;;;;;;;;6.00;6.00;;;;;29.20;28.79;101124.69;5077944;27;45419;-76
2022/07/19 02:50:45;;;;;;;;;5.00;5.00;;;;;29.20;28.95;101138.41;5059671;28;45514;-76
2022/07/19 02:53:11;;;;;;;;;4.33;3.00;;;;;29.18;29.26;101127.59;5077397;27;46049;-77
2022/07/19 02:55:36;;;;;;;;;7.00;4.33;;;;;29.17;29.43;101128.66;5059687;28;45667;-77
2022/07/19 02:58:02;;;;;;;;;6.00;6.00;;;;;29.17;28.98;101123.16;5091995;27;45454;-76
2022/07/19 03:00:28;;;;;;;;;7.00;5.33;;;;;29.15;29.05;101122.47;5078146;27;45366;-77
2022/07/19 03:02:53;;;;;;;;;6.00;6.00;;;;;29.07;28.99;101111.53;5077587;27;47148;-76
2022/07/19 03:05:19;;;;;;;;;6.00;6.00;;;;;29.11;28.83;101129.38;5059089;28;45442;-77
2022/07/19 03:07:45;;;;;;;;;5.33;5.33;;;;;28.93;29.00;101099.38;5083976;27;45423;-80
2022/07/19 03:10:11;;;;;;;;;7.00;5.00;;;;;29.06;28.96;101120.78;5094619;27;45541;-80
2022/07/19 03:12:36;;;;;;;;;5.00;5.00;;;;;29.05;29.36;101125.38;5090827;27;46500;-80
2022/07/19 03:15:02;;;;;;;;;5.33;5.33;;;;;29.00;29.55;101118.75;5091499;27;45462;-80
2022/07/19 03:17:28;;;;;;;;;5.67;5.33;;;;;28.96;29.89;101123.75;5091914;27;45470;-80
2022/07/19 03:19:53;;;;;;;;;6.67;6.67;;;;;28.97;29.59;101125.44;5077536;27;45634;-80
2022/07/19 03:22:18;;;;;;;;;6.00;4.33;;;;;28.89;29.79;101119.13;5059002;28;46320;-80
2022/07/19 03:24:43;;;;;;;;;5.00;5.00;;;;;28.91;29.71;101128.88;5077634;27;45443;-80
2022/07/19 03:27:09;;;;;;;;;6.00;6.00;;;;;28.76;29.73;101111.47;5077503;27;45707;-80
2022/07/19 03:29:34;;;;;;;;;5.67;5.33;;;;;28.79;29.53;101120.19;5085518;27;45475;-81
2022/07/19 03:31:59;;;;;;;;;6.67;6.00;;;;;28.80;30.31;101126.56;5096951;27;45467;-80
2022/07/19 03:34:26;;;;;;;;;5.00;5.00;;;;;28.78;30.18;101128.63;5076680;27;45440;-80
2022/07/19 03:36:51;;;;;;;;;6.33;5.00;;;;;28.75;29.94;101129.84;5083928;27;45598;-81
2022/07/19 03:39:17;;;;;;;;;7.00;5.00;;;;;28.73;29.91;101125.53;5084024;27;45339;-80
2022/07/19 03:41:42;;;;;;;;;6.00;5.67;;;;;28.69;29.93;101115.97;5076915;27;46293;-80
2022/07/19 03:44:07;;;;;;;;;6.00;4.33;;;;;28.73;29.61;101129.16;5053426;27;45780;-81
2022/07/19 03:46:33;;;;;;;;;6.00;6.00;;;;;28.74;29.31;101135.47;5079872;27;45565;-80
2022/07/19 03:48:58;;;;;;;;;3.67;3.67;;;;;28.71;29.36;101131.22;5077123;27;45487;-80
2022/07/19 03:51:24;;;;;;;;;6.33;4.33;;;;;28.63;29.48;101114.75;5091154;27;45605;-80
2022/07/19 03:53:49;;;;;;;;;5.67;2.67;;;;;28.62;29.78;101111.16;5076973;27;45447;-80
2022/07/19 03:56:15;;;;;;;;;6.00;6.00;;;;;28.59;29.87;101100.56;5076974;27;45559;-80
2022/07/19 03:58:41;;;;;;;;;6.67;6.67;;;;;28.66;29.75;101114.44;5077278;27;45470;-80
2022/07/19 04:01:06;;;;;;;;;6.00;6.00;;;;;28.60;29.83;101109.63;5088133;27;46265;-80
2022/07/19 04:03:39;;;;;;;;;7.00;5.33;;;;;28.67;29.86;101120.75;5079040;27;45580;-80
2022/07/19 04:06:10;;;;;;;;;6.00;6.00;;;;;28.67;30.07;101120.75;5086865;27;46412;-80
2022/07/19 04:08:36;;;;;;;;;6.00;5.00;;;;;28.64;29.64;101116.50;5080086;27;45665;-77
2022/07/19 04:11:03;;;;;;;;;6.00;6.00;;;;;28.59;30.00;101113.44;5076305;27;46504;-76
2022/07/19 04:13:28;;;;;;;;;5.67;5.00;;;;;28.65;29.81;101123.69;5058360;27;45466;-76
2022/07/19 04:15:54;;;;;;;;;6.00;6.00;;;;;28.61;29.70;101116.81;5083730;27;45541;-77
2022/07/19 04:18:19;;;;;;;;;9.00;6.33;;;;;28.49;29.77;101102.63;5083883;27;45640;-76
2022/07/19 04:20:44;;;;;;;;;6.33;6.00;;;;;28.64;29.69;101121.13;5076079;27;46473;-77
2022/07/19 04:23:10;;;;;;;;;4.33;4.00;;;;;28.57;29.52;101110.84;5076652;27;45513;-77
2022/07/19 04:25:35;;;;;;;;;6.67;4.67;;;;;28.61;29.93;101116.81;5076430;27;45454;-76
2022/07/19 04:28:01;;;;;;;;;7.33;6.33;;;;;28.53;30.02;101114.97;5085757;27;45532;-77
2022/07/19 04:30:27;;;;;;;;;5.33;5.33;;;;;28.37;30.18;101091.16;5082213;27;47348;-77
2022/07/19 04:32:53;;;;;;;;;6.00;4.00;;;;;28.51;29.84;101114.28;5089608;27;45622;-77
2022/07/19 04:35:18;;;;;;;;;5.33;5.33;;;;;28.55;30.34;101117.53;5076314;27;45469;-76
2022/07/19 04:37:43;;;;;;;;;7.67;5.33;;;;;28.54;29.81;101116.69;5090157;27;45496;-77
2022/07/19 04:40:09;;;;;;;;;5.00;4.00;;;;;28.50;30.07;101109.00;5076114;27;46091;-77
2022/07/19 04:42:35;;;;;;;;;5.00;5.00;;;;;28.53;29.78;101119.59;5058166;28;45681;-77
2022/07/19 04:45:01;;;;;;;;;7.00;6.00;;;;;28.52;29.75;101113.28;5089520;27;45580;-76
2022/07/19 04:47:26;;;;;;;;;7.00;5.67;;;;;28.54;30.14;101115.81;5076274;27;45325;-77
2022/07/19 04:49:52;;;;;;;;;5.00;5.00;;;;;28.52;30.14;101112.44;5090334;27;46291;-77
2022/07/19 04:52:17;;;;;;;;;6.33;6.33;;;;;28.50;29.86;101109.00;5076016;27;45605;-77
2022/07/19 04:54:42;;;;;;;;;7.00;7.00;;;;;28.43;30.28;101100.56;5075932;27;45742;-77
2022/07/19 04:57:08;;;;;;;;;9.00;6.33;;;;;28.51;30.21;101108.81;5090246;27;45466;-77
2022/07/19 04:59:33;;;;;;;;;6.33;6.33;;;;;28.46;30.09;101105.72;5075778;27;45989;-77
2022/07/19 05:01:59;;;;;;;;;6.00;6.00;;;;;28.53;30.12;101103.16;5075650;27;45868;-77
2022/07/19 05:04:24;;;;;;;;;7.33;6.00;;;;;28.52;30.09;101095.97;5075868;27;45446;-77
2022/07/19 05:06:51;;;;;;;;;5.67;5.67;;;;;28.54;30.00;101105.72;5084002;27;45582;-77
2022/07/19 05:09:18;;;;;;;;;6.33;4.67;;;;;28.54;30.52;101100.25;5087764;27;45484;-77
2022/07/19 05:11:45;;;;;;;;;6.33;6.33;;;;;28.55;30.36;101106.56;5090008;27;45404;-77
2022/07/19 05:14:10;;;;;;;;;8.00;6.67;;;;;28.54;30.68;101096.63;5082501;27;45505;-77
2022/07/19 05:16:35;;;;;;;;;6.00;6.00;;;;;28.50;30.50;101093.38;5082957;27;45511;-77
2022/07/19 05:19:01;;;;;;;;;10.33;8.00;;;;;28.46;30.50;101089.28;5075223;27;47167;-77
2022/07/19 05:21:26;;;;;;;;;6.00;6.00;;;;;28.57;30.65;101102.63;5086559;27;45433;-76
2022/07/19 05:23:51;;;;;;;;;9.00;8.00;;;;;28.50;30.41;101089.81;5081740;27;45587;-76
2022/07/19 05:26:17;;;;;;;;;5.67;5.67;;;;;28.60;30.65;101104.16;5087777;27;45505;-77
2022/07/19 05:28:42;;;;;;;;;7.00;7.00;;;;;28.61;30.72;101097.63;5075322;27;46213;-76
2022/07/19 05:31:08;;;;;;;;;8.00;8.00;;;;;28.58;30.78;101087.00;5093555;27;45355;-73
2022/07/19 05:33:33;;;;;;;;;7.33;7.33;;;;;28.52;30.93;101082.25;5091600;27;45501;-75
2022/07/19 05:35:58;;;;;;;;;9.33;8.00;;;;;28.64;30.64;101094.53;5091871;27;45560;-75
2022/07/19 05:38:24;;;;;;;;;11.00;8.67;;;;;28.65;30.93;101093.50;5087895;27;46223;-75
2022/07/19 05:40:49;;;;;;;;;10.67;8.67;;;;;28.59;30.68;101083.25;5084903;27;45473;-75
2022/07/19 05:43:15;;;;;;;;;7.67;7.67;;;;;28.64;31.00;101080.84;5077762;27;45352;-75
2022/07/19 05:45:40;;;;;;;;;8.00;7.33;;;;;28.70;30.86;101095.72;5089001;27;45594;-75
2022/07/19 05:48:06;;;;;;;;;7.00;6.00;;;;;28.71;30.90;101087.31;5089702;27;47011;-75
2022/07/19 05:50:31;;;;;;;;;7.33;6.67;;;;;28.65;31.40;101077.03;5084138;27;45530;-75
2022/07/19 05:52:56;;;;;;;;;10.33;8.00;;;;;28.62;31.09;101064.53;5095436;27;45669;-77
2022/07/19 05:55:22;;;;;;;;;10.67;9.33;;;;;28.70;31.07;101069.13;5087555;27;45554;-75
2022/07/19 05:57:47;;;;;;;;;8.00;8.00;;;;;28.75;30.66;101074.09;5071818;27;47380;-75
2022/07/19 06:00:14;;;;;;;;;5.67;4.33;;;;;28.76;30.54;101067.56;5090554;27;45549;-75
2022/07/19 06:02:39;;;;;;;;;7.00;7.00;;;;;28.87;30.10;101080.03;5069889;27;45454;-75
2022/07/19 06:05:05;;;;;;;;;8.00;7.67;;;;;28.92;29.99;101083.13;5085477;27;45414;-75
2022/07/19 06:07:31;;;;;;;;;8.67;8.00;;;;;28.93;29.68;101077.44;5065404;28;47482;-75
2022/07/19 06:09:56;;;;;;;;;7.00;4.67;;;;;28.97;30.32;101081.53;5095419;27;45497;-76
2022/07/19 06:12:21;;;;;;;;;9.33;9.33;;;;;29.01;29.58;101077.41;5084396;27;45424;-76
2022/07/19 06:14:47;;;;;;;;;7.33;7.33;;;;;29.04;29.68;101081.66;5086969;27;45445;-76
2022/07/19 06:17:12;;;;;;;;;6.33;6.33;;;;;29.05;30.00;101072.38;5078111;27;45583;-76
2022/07/19 06:19:37;;;;;;;;;8.67;8.67;;;;;29.05;29.80;101058.66;5088288;27;45876;-76
2022/07/19 06:22:03;;;;;;;;;10.00;7.67;;;;;29.16;29.55;101069.28;5084264;27;45376;-76
2022/07/19 06:24:28;;;;;;;;;11.67;9.33;;;;;29.15;29.59;101056.59;5091454;27;45593;-76
2022/07/19 06:26:54;;;;;;;;;8.33;8.00;;;;;29.25;29.73;101072.84;5078032;27;47199;-76
2022/07/19 06:29:19;;;;;;;;;7.67;7.67;;;;;29.24;29.58;101052.75;5077758;27;45524;-76
2022/07/19 06:31:44;;;;;;;;;11.67;10.67;;;;;29.33;29.48;101061.78;5059934;28;45461;-77
2022/07/19 06:34:09;;;;;;;;;9.00;8.00;;;;;29.36;29.66;101058.69;5081438;27;45402;-81
2022/07/19 06:36:35;;;;;;;;;11.67;8.67;;;;;29.40;29.55;101060.00;5074925;27;49648;-77
2022/07/19 06:39:00;;;;;;;;;7.67;7.67;;;;;29.37;29.51;101043.06;5086993;27;45395;-77
2022/07/19 06:41:25;;;;;;;;;7.67;6.67;;;;;29.45;29.40;101046.59;5077744;27;45332;-77
2022/07/19 06:43:51;;;;;;;;;10.00;8.00;;;;;29.64;29.34;101049.84;5078079;27;45539;-77
2022/07/19 06:46:16;;;;;;;;;9.00;9.00;;;;;29.45;28.96;101024.63;5082879;27;46204;-77
2022/07/19 06:48:41;;;;;;;;;11.00;8.00;;;;;29.65;28.82;101046.94;5091205;27;45447;-77
2022/07/19 06:51:07;;;;;;;;;8.33;7.00;;;;;29.69;28.83;101044.72;5091380;27;45395;-77
2022/07/19 06:53:33;;;;;;;;;11.33;8.33;;;;;29.74;28.85;101049.66;5096683;27;45469;-78
2022/07/19 06:55:58;;;;;;;;;9.00;8.00;;;;;29.79;29.10;101047.22;5068621;28;47233;-77
2022/07/19 06:58:24;;;;;;;;;9.67;7.67;;;;;29.79;28.74;101044.47;5056197;27;45456;-77
2022/07/19 07:00:51;;;;;;;;;4.67;4.67;;;;;29.89;28.20;101050.53;5086835;27;45419;-77
2022/07/19 07:03:19;;;;;;;;;10.67;9.67;;;;;29.95;28.44;101051.69;5083884;27;45597;-77
2022/07/19 07:05:45;;;;;;;;;9.00;8.00;;;;;30.00;27.95;101049.25;5090190;27;46492;-77
2022/07/19 07:08:10;;;;;;;;;8.67;8.67;;;;;30.00;27.96;101039.09;5080620;27;45581;-77
2022/07/19 07:10:37;;;;;;;;;9.00;9.00;;;;;30.04;28.22;101040.44;5077534;27;45409;-77
2022/07/19 07:13:02;;;;;;;;;8.33;8.00;;;;;30.14;27.75;101045.66;5077900;27;45537;-77
2022/07/19 07:15:28;;;;;;;;;10.00;7.00;;;;;30.17;27.63;101042.50;5077098;27;46418;-77
2022/07/19 07:17:53;;;;;;;;;10.00;9.00;;;;;30.18;27.83;101029.59;5077217;27;45450;-77
2022/07/19 07:20:19;;;;;;;;;11.00;7.67;;;;;30.28;27.32;101047.59;5058108;27;45494;-77
2022/07/19 07:22:44;;;;;;;;;12.00;10.33;;;;;30.34;27.52;101040.47;5091127;27;45639;-77
2022/07/19 07:25:10;;;;;;;;;9.00;8.00;;;;;30.38;27.72;101019.78;5076999;27;47082;-77
2022/07/19 07:27:35;;;;;;;;;9.00;8.67;;;;;30.44;27.31;101019.03;5077074;27;45406;-77
2022/07/19 07:30:00;;;;;;;;;10.67;8.33;;;;;30.39;26.85;101006.88;5070439;27;45780;-77
2022/07/19 07:32:26;;;;;;;;;9.00;8.33;;;;;30.46;27.58;101013.31;5080358;27;45514;-76
2022/07/19 07:34:52;;;;;;;;;6.67;6.67;;;;;30.58;27.24;101014.56;5086360;27;47380;-76
2022/07/19 07:37:18;;;;;;;;;5.00;5.00;;;;;30.65;27.28;101020.16;5092622;27;45497;-77
2022/07/19 07:39:43;;;;;;;;;9.00;7.33;;;;;30.70;27.30;101014.94;5094058;27;45687;-77
2022/07/19 07:42:08;;;;;;;;;8.67;8.33;;;;;30.67;26.96;100999.66;5077156;27;45557;-77
2022/07/19 07:44:34;;;;;;;;;11.67;9.00;;;;;30.76;26.94;101005.88;5073625;27;47149;-77
2022/07/19 07:46:59;;;;;;;;;9.00;7.00;;;;;30.81;27.27;100999.78;5090150;27;45605;-76
2022/07/19 07:49:26;;;;;;;;;9.67;8.67;;;;;30.90;26.84;100999.50;5090363;27;45387;-77
2022/07/19 07:51:51;;;;;;;;;9.00;9.00;;;;;30.97;27.25;100996.00;5082912;27;45442;-77
2022/07/19 07:54:16;;;;;;;;;8.33;7.33;;;;;31.04;26.76;101002.41;5096627;27;47376;-77
2022/07/19 07:56:42;;;;;;;;;9.33;9.33;;;;;31.08;26.56;100996.31;5094226;27;45323;-77
2022/07/19 07:59:08;;;;;;;;;9.33;8.33;;;;;31.13;26.78;100996.56;5064364;28;45374;-77
2022/07/19 08:01:34;;;;;;;;;9.33;8.33;;;;;31.12;26.67;100978.38;5076972;27;45498;-77
2022/07/19 08:03:59;;;;;;;;;13.00;11.33;;;;;31.27;26.81;100989.31;5083252;27;46509;-76
2022/07/19 08:06:25;;;;;;;;;11.00;9.33;;;;;31.33;26.39;100980.25;5096767;27;45379;-76
2022/07/19 08:08:50;;;;;;;;;13.00;10.00;;;;;31.33;26.46;100971.16;5091798;27;45449;-77
2022/07/19 08:11:16;;;;;;;;;13.67;13.67;;;;;31.46;25.97;100976.78;5077022;27;45361;-77
2022/07/19 08:13:41;;;;;;;;;10.33;10.00;;;;;31.53;25.83;100976.84;5076296;27;45389;-77
2022/07/19 08:16:07;;;;;;;;;12.00;12.00;;;;;31.47;26.32;100958.38;5085233;27;45367;-76
2022/07/19 08:18:33;;;;;;;;;9.00;9.00;;;;;31.66;25.83;100976.97;5063065;28;45454;-77
2022/07/19 08:20:58;;;;;;;;;10.00;8.33;;;;;31.73;25.93;100974.25;5083523;27;45458;-77
2022/07/19 08:23:23;;;;;;;;;8.67;8.67;;;;;31.80;25.59;100974.31;5083341;27;46497;-77
2022/07/19 08:25:49;;;;;;;;;9.67;8.00;;;;;31.85;25.50;100958.88;5058051;27;45415;-77
2022/07/19 08:28:14;;;;;;;;;6.33;5.67;;;;;31.91;25.16;100960.81;5076329;27;45563;-77
2022/07/19 08:30:39;;;;;;;;;7.33;7.33;;;;;32.00;25.28;100955.16;5079179;27;45750;-77
2022/07/19 08:33:08;;;;;;;;;10.00;10.00;;;;;32.13;24.93;100964.38;5087842;27;45493;-77
2022/07/19 08:35:34;;;;;;;;;16.67;14.67;;;;;32.18;24.65;100952.72;5075770;27;45429;-77
2022/07/19 08:37:59;;;;;;;;;5.00;5.00;;;;;32.23;24.75;100943.84;5089467;27;45453;-76
2022/07/19 08:40:25;;;;;;;;;8.00;7.00;;;;;32.39;24.32;100951.75;5050711;27;45565;-77
2022/07/19 08:42:50;;;;;;;;;7.67;7.33;;;;;32.51;23.83;100954.81;5081421;27;45488;-77
2022/07/19 08:45:16;;;;;;;;;11.00;10.00;;;;;32.62;24.07;100953.38;5080067;27;45488;-77
2022/07/19 08:47:42;;;;;;;;;13.00;11.33;;;;;32.76;24.10;100955.94;5076128;27;45619;-77
2022/07/19 08:50:11;;;;;;;;;7.33;7.33;;;;;33.03;23.42;100958.75;5057938;28;45602;-77
2022/07/19 08:52:37;;;;;;;;;8.67;8.67;;;;;33.54;22.85;100954.56;5075742;27;45757;-76
2022/07/19 08:55:04;;;;;;;;;9.67;9.33;;;;;34.93;21.22;100945.00;5060550;27;45459;-76
2022/07/19 09:00:14;;;;;;;;;8.00;8.00;;;;;39.39;17.63;100937.22;5090386;27;45465;-77
2022/07/19 09:02:39;;;;;;;;;8.67;8.00;;;;;41.50;16.02;100942.31;5075595;27;46951;-77
2022/07/19 09:05:09;;;;;;;;;9.00;9.00;;;;;44.16;13.95;100938.38;5075573;27;45350;-77
2022/07/19 09:07:37;;;;;;;;;8.67;7.33;;;;;46.19;12.11;100948.31;5078983;27;45487;-76
2022/07/19 09:10:20;;;;;;;;;7.67;6.67;;;;;47.78;11.31;100931.69;5075604;27;45517;-76
2022/07/19 09:13:04;;;;;;;;;6.67;5.33;;;;;49.27;10.43;100957.50;5084894;27;45544;-76
2022/07/19 09:15:44;;;;;;;;;6.67;6.67;;;;;50.33;9.38;100945.50;5077643;27;45458;-76
2022/07/19 09:18:27;;;;;;;;;9.33;7.00;;;;;51.31;8.87;100952.53;5057150;28;45491;-76
2022/07/19 09:20:54;;;;;;;;;10.67;9.67;;;;;52.18;8.48;100957.09;5074389;27;45655;-76
2022/07/19 09:23:20;;;;;;;;;8.00;8.00;;;;;52.90;7.91;100955.06;5075121;27;46220;-76
2022/07/19 09:25:52;;;;;;;;;8.67;5.67;;;;;53.57;7.65;100953.03;5079667;27;45545;-76
2022/07/19 09:28:19;;;;;;;;;10.33;8.00;;;;;54.35;6.77;100946.25;5084641;27;45524;-76
2022/07/19 09:30:46;;;;;;;;;5.67;5.67;;;;;54.93;7.01;100950.84;5077520;27;45470;-77
2022/07/19 09:33:11;;;;;;;;;7.33;7.33;;;;;55.55;6.81;100946.47;5078937;27;46052;-77
2022/07/19 09:35:48;;;;;;;;;2.67;1.00;;;;;55.96;6.10;100949.13;5078583;27;45409;-77
2022/07/19 09:38:20;;;;;;;;;8.33;7.00;;;;;56.28;5.65;100943.38;5092418;27;46187;-77
2022/07/19 09:40:47;;;;;;;;;8.00;7.00;;;;;56.64;5.22;100934.38;5079303;27;45534;-77
2022/07/19 09:43:12;;;;;;;;;7.00;6.67;;;;;57.13;5.11;100934.97;5078536;27;45497;-77
2022/07/19 09:45:37;;;;;;;;;7.00;6.00;;;;;57.36;5.28;100929.25;5082977;27;45413;-77
2022/07/19 09:48:03;;;;;;;;;8.67;6.00;;;;;57.61;4.49;100916.22;5093409;27;45335;-77
2022/07/19 09:50:29;;;;;;;;;6.33;6.33;;;;;57.97;5.02;100939.72;5079042;27;45399;-77
2022/07/19 09:52:58;;;;;;;;;5.67;5.67;;;;;57.95;4.57;100901.16;5060433;28;48073;-76
2022/07/19 09:55:24;;;;;;;;;7.00;7.00;;;;;58.00;4.31;100932.38;5078398;27;45434;-77
2022/07/19 09:57:51;;;;;;;;;9.33;7.00;;;;;57.99;4.36;100922.13;5091468;27;45363;-77
2022/07/19 10:00:21;;;;;;;;;6.00;6.00;;;;;58.10;4.82;100926.00;5080471;27;45478;-77
2022/07/19 10:02:53;;;;;;;;;9.00;7.33;;;;;58.15;4.96;100916.22;5060226;28;46921;-77
2022/07/19 10:05:19;;;;;;;;;7.00;7.00;;;;;58.31;4.71;100916.88;5078157;27;45485;-78
2022/07/19 10:07:45;;;;;;;;;5.67;4.33;;;;;58.31;4.05;100917.69;5092385;27;45445;-78
2022/07/19 10:10:13;;;;;;;;;7.67;7.00;;;;;58.14;4.30;100903.88;5097432;27;45463;-77
2022/07/19 10:12:40;;;;;;;;;8.00;8.00;;;;;58.00;4.13;100890.16;5078535;27;46047;-77
2022/07/19 10:15:07;;;;;;;;;6.67;6.67;;;;;57.96;4.27;100895.03;5078337;27;45476;-78
2022/07/19 10:17:48;;;;;;;;;9.00;7.33;;;;;57.77;4.87;100890.22;5078384;27;45395;-77
2022/07/19 10:20:20;;;;;;;;;6.75;6.00;;;;;57.54;5.10;100884.53;5078392;27;45485;-77
2022/07/19 10:22:46;;;;;;;;;5.67;5.67;;;;;57.33;5.26;100872.69;5077890;27;47283;-77
2022/07/19 10:25:14;;;;;;;;;6.67;6.67;;;;;57.24;4.56;100879.50;5078159;27;45544;-77
2022/07/19 10:27:46;;;;;;;;;6.00;6.00;;;;;56.80;4.34;100881.91;5078200;27;45461;-77
2022/07/19 10:30:11;;;;;;;;;6.33;6.33;;;;;56.56;5.17;100871.59;5078501;27;45812;-77
2022/07/19 10:32:37;;;;;;;;;5.00;5.00;;;;;56.28;4.58;100864.03;5092114;27;46311;-77
2022/07/19 10:35:18;;;;;;;;;6.33;6.00;;;;;55.62;4.94;100860.03;5077767;27;45438;-77
2022/07/19 10:37:48;;;;;;;;;7.50;6.00;;;;;55.03;5.27;100861.78;5095458;27;45511;-78
2022/07/19 10:40:14;;;;;;;;;5.75;5.75;;;;;54.65;5.31;100851.72;5078126;27;45433;-77
2022/07/19 10:43:12;;;;;;;;;6.33;5.00;;;;;54.13;5.73;100832.63;5077004;27;45407;-77
2022/07/19 10:46:02;;;;;;;;;5.33;5.33;;;;;53.50;6.16;100805.38;5062398;27;45621;-77
2022/07/19 10:48:50;;;;;;;;;6.75;5.75;;;;;53.12;6.34;100805.72;5082017;27;45395;-77
2022/07/19 10:51:28;;;;;;;;;8.00;7.50;;;;;52.78;6.20;100807.78;5084113;27;45521;-77
2022/07/19 10:53:56;;;;;;;;;6.33;6.33;;;;;52.27;6.27;100809.91;5059375;28;46488;-77
2022/07/19 10:56:25;;;;;;;;;6.00;6.00;;;;;51.92;6.57;100807.31;5077585;27;45459;-77
2022/07/19 10:58:54;;;;;;;;;4.00;4.00;;;;;51.59;6.94;100808.00;5077921;27;45406;-77
2022/07/19 11:01:20;;;;;;;;;6.33;6.33;;;;;51.20;7.03;100792.97;5073234;27;45457;-77
2022/07/19 11:03:47;;;;;;;;;7.00;6.33;;;;;50.98;7.13;100796.88;5065106;27;47106;-77
2022/07/19 11:06:27;;;;;;;;;7.50;7.50;;;;;50.27;6.57;100788.78;5087011;27;45620;-78
2022/07/19 11:08:58;;;;;;;;;6.00;6.00;;;;;49.69;7.37;100782.41;5092503;27;45791;-77
2022/07/19 11:11:26;;;;;;;;;6.00;6.00;;;;;49.22;7.51;100773.53;5077840;27;45375;-77
2022/07/19 11:13:54;;;;;;;;;6.33;6.00;;;;;48.67;8.00;100785.22;5077092;27;47301;-76
2022/07/19 11:16:21;;;;;;;;;8.67;7.00;;;;;48.11;8.33;100776.09;5077540;27;45856;-77
2022/07/19 11:18:47;;;;;;;;;5.33;5.33;;;;;47.50;7.81;100752.88;5076987;27;45847;-77
2022/07/19 11:21:14;;;;;;;;;5.67;5.67;;;;;47.08;8.34;100771.75;5077509;27;45480;-77
2022/07/19 11:23:40;;;;;;;;;6.67;5.33;;;;;46.68;9.07;100762.88;5077348;27;46760;-77